Time,TemperatureF,DewpointF,PressureIn,WindDirection,WindDirectionDegrees,WindSpeedMPH,WindSpeedGustMPH,Humidity,HourlyPrecipIn,Conditions,Clouds,dailyrainin,SolarRadiationWatts/m^2,SoftwareType,DateUTC
2013-01-27 00:00:00,29.0,29.0,-100.00,SE,137,1.0,2.0,101,-99.99,,,0.01,-0.200000,,2013-01-27 08:00:00,
2013-01-27 00:52:00,29.0,29.0,-100.00,SE,137,1.0,2.0,101,-99.99,,,0.01,-0.200000,,2013-01-27 08:52:00,
2013-01-27 01:00:00,29.0,29.0,-100.00,SSW,193,1.0,2.0,101,-99.99,,,0.00,-0.200000,,2013-01-27 09:00:00,
2013-01-27 01:52:00,29.0,29.0,-100.00,SSW,193,1.0,2.0,101,-99.99,,,0.00,-0.200000,,2013-01-27 09:52:00,
2013-01-27 02:00:00,29.0,29.0,-100.00,NW,311,0.0,1.0,101,-99.99,,,0.01,-0.200000,,2013-01-27 10:00:00,
2013-01-27 02:52:00,29.0,29.0,-100.00,NW,311,0.0,1.0,101,-99.99,,,0.01,-0.200000,,2013-01-27 10:52:00,
2013-01-27 03:00:00,29.0,29.0,-100.00,SW,229,1.0,1.0,101,-99.99,,,0.02,-0.200000,,2013-01-27 11:00:00,
2013-01-27 03:52:00,29.0,29.0,-100.00,SW,229,1.0,1.0,101,-99.99,,,0.02,-0.200000,,2013-01-27 11:52:00,
2013-01-27 04:00:00,29.0,29.0,-100.00,SSW,211,1.0,2.0,101,-99.99,,,0.02,-0.200000,,2013-01-27 12:00:00,
2013-01-27 04:52:00,29.0,29.0,-100.00,SSW,211,1.0,2.0,101,-99.99,,,0.02,-0.200000,,2013-01-27 12:52:00,
2013-01-27 05:00:00,29.0,29.0,-100.00,WSW,243,0.0,2.0,101,-99.99,,,0.02,-0.200000,,2013-01-27 13:00:00,
2013-01-27 05:52:00,29.0,29.0,-100.00,WSW,243,0.0,2.0,101,-99.99,,,0.02,-0.200000,,2013-01-27 13:52:00,
2013-01-27 08:00:00,29.0,29.0,-100.00,South,189,1.0,2.0,101,-99.99,,,0.02,0.200000,,2013-01-27 16:00:00,
2013-01-27 08:53:00,29.0,29.0,-100.00,South,189,1.0,2.0,101,-99.99,,,0.02,0.200000,,2013-01-27 16:53:00,
2013-01-27 10:00:00,29.0,29.0,-100.00,NNE,21,1.0,2.0,101,-99.99,,,0.02,4.200000,,2013-01-27 18:00:00,
2013-01-27 10:52:00,29.0,29.0,-100.00,NNE,21,1.0,2.0,101,-99.99,,,0.02,4.200000,,2013-01-27 18:52:00,
2013-01-27 12:00:00,30.0,30.0,-100.00,East,98,1.0,2.0,100,-99.99,,,0.02,17.400000,,2013-01-27 20:00:00,
2013-01-27 12:52:00,30.0,30.0,-100.00,East,98,1.0,2.0,100,-99.99,,,0.02,17.400000,,2013-01-27 20:52:00,
2013-01-27 13:00:00,30.0,29.0,-100.00,SW,216,2.0,3.0,99,-99.99,,,0.02,14.300000,,2013-01-27 21:00:00,
2013-01-27 13:52:00,30.0,29.0,-100.00,SW,216,2.0,3.0,99,-99.99,,,0.02,14.300000,,2013-01-27 21:52:00,
2013-01-27 14:00:00,29.0,29.0,-100.00,South,173,2.0,3.0,100,-99.99,,,0.02,9.500000,,2013-01-27 22:00:00,
2013-01-27 15:00:00,29.0,29.0,-100.00,SSW,203,1.0,2.0,100,-99.99,,,0.02,5.900000,,2013-01-27 23:00:00,
2013-01-27 15:53:00,29.0,29.0,-100.00,SSW,203,1.0,2.0,100,-99.99,,,0.02,5.900000,,2013-01-27 23:53:00,
2013-01-27 16:00:00,28.0,28.0,-100.00,SSW,208,1.0,3.0,100,-99.99,,,0.02,2.400000,,2013-01-28 00:00:00,
2013-01-27 16:52:00,28.0,28.0,-100.00,SSW,208,1.0,3.0,100,-99.99,,,0.02,2.400000,,2013-01-28 00:52:00,
2013-01-27 17:00:00,28.0,28.0,-100.00,NNE,16,1.0,3.0,100,-99.99,,,0.02,0.200000,,2013-01-28 01:00:00,
2013-01-27 18:00:00,28.0,28.0,-100.00,East,88,1.0,2.0,101,-99.99,,,0.03,-0.200000,,2013-01-28 02:00:00,
2013-01-27 18:52:00,28.0,28.0,-100.00,East,88,1.0,2.0,101,-99.99,,,0.03,-0.200000,,2013-01-28 02:52:00,
2013-01-27 19:00:00,28.0,28.0,-100.00,WSW,247,1.0,2.0,101,-99.99,,,0.03,-0.200000,,2013-01-28 03:00:00,
2013-01-27 19:53:00,28.0,28.0,-100.00,WSW,247,1.0,2.0,101,-99.99,,,0.03,-0.200000,,2013-01-28 03:53:00,
2013-01-27 20:00:00,28.0,-99.9,-100.00,North,-999,-999.0,-999.0,-999,-99.99,,,0.04,,,2013-01-28 04:00:00,
2013-01-27 20:52:00,28.0,-99.9,-100.00,North,-999,-999.0,-999.0,-999,-99.99,,,0.04,,,2013-01-28 04:52:00,
2013-01-27 21:00:00,28.0,28.0,-100.00,South,178,1.0,2.0,101,-99.99,,,0.03,-0.200000,,2013-01-28 05:00:00,
2013-01-27 21:52:00,28.0,28.0,-100.00,South,178,1.0,2.0,101,-99.99,,,0.03,-0.200000,,2013-01-28 05:52:00,
2013-01-27 22:00:00,28.0,28.0,-100.00,SSW,196,1.0,2.0,101,-99.99,,,0.04,-0.200000,,2013-01-28 06:00:00,
2013-01-27 22:52:00,28.0,28.0,-100.00,SSW,196,1.0,2.0,101,-99.99,,,0.04,-0.200000,,2013-01-28 06:52:00,
2013-01-27 23:00:00,28.0,28.0,-100.00,SSW,195,0.0,0.0,101,-99.99,,,0.04,-0.200000,,2013-01-28 07:00:00,
2013-01-27 23:52:00,28.0,28.0,-100.00,SSW,195,0.0,0.0,101,-99.99,,,0.04,-0.200000,,2013-01-28 07:52:00,